Suwanee, Florida
Current Conditions -  °F | °C
As of 5:53 PM on Saturday 20 Dec 2014 (Local Time) from KGNV Reporting Station
Scattered Clouds Scattered Clouds  
Wind Chill: 65°   Ceiling: Unl
Heat Index: 65°   Visibility: 10mi
Dew Point: 56°   Wind: 3mph
Humidity: 73%   Direction: 100°E
Pressure: 30.08"   Gusts: NA
Location:  29.6251°N, 82.7909°W
Report Text: KGNV 202253Z 10003KT 10SM FEW044 SCT110 18/13 A3008 RMK AO2 SLP186 T01830133
Loading
Personal Weather Stations






























Interactive Weather Map New forecast layout! Learn more

10-Day Weather Forecast

Advertisements
Track Severe Weather on mobile